Nearby METAR Reports

 

KSJC - San Jose, California, USA
Distance from station: NE 9mi, 14km
Updated: Wed, 22-Nov-2017 11:53am PST
Mostly cloudy
Mostly cloudy
 Wind from varies
Wind: varies 3 mph , 6 km/h
Temperature: 72°F , 22°C
Dew Point: 55°F , 13°C
Humidity: 57%
Barometer: 30.11 inHg , 1019.6 hPa
Clouds: Mostly cloudy
Visibility: 7 miles , 11 km
Cloud details: Few Clouds 1000 ft
Partly cloudy 6000 ft
Mostly cloudy 10000 ft
2017/11/22 19:53 KSJC 221953Z VRB03KT 7SM FEW010 SCT060 BKN100 22/13 A3011 RMK AO2 SLP195 T02170128
KNUQ - Moffett Nas/Mtn, California, USA
Distance from station: N 9mi, 14km
Updated: Wed, 22-Nov-2017 11:56am PST
Clear
Clear
 Wind from varies
Wind: varies 5 mph , 7 km/h
Temperature: 70°F , 21°C
Dew Point: 55°F , 13°C
Humidity: 60%
Barometer: 30.11 inHg , 1019.6 hPa
Clouds: Clear
Visibility: 8 miles , 13 km
2017/11/22 19:56 KNUQ 221956Z VRB04KT 8SM CLR 21/13 A3011 RMK AO2 SLP199 T02060133
 
KPAO - Palo Alto, California, USA
Distance from station: NNW 14mi, 23km
Updated: Wed, 22-Nov-2017 11:47am PST
Partly cloudy
Partly cloudy
 Wind from NE
Wind: NE 7 mph , 11 km/h
Temperature: 70°F , 21°C
Dew Point: 55°F , 13°C
Humidity: 60%
Barometer: 30.11 inHg , 1019.6 hPa
Clouds: Partly cloudy
Visibility: 7 miles , 11 km
Cloud details: Partly cloudy 18000 ft
2017/11/22 19:47 KPAO 221947Z 04006KT 7SM SCT180 21/13 A3011
KRHV - San Jose/Reid, California, USA
Distance from station: ENE 12mi, 19km
Updated: Wed, 22-Nov-2017 11:47am PST
Partly cloudy
Partly cloudy
 Wind from varies
Wind: varies 6 mph , 9 km/h
Temperature: 70°F , 21°C
Dew Point: 55°F , 13°C
Humidity: 60%
Barometer: 30.10 inHg , 1019.3 hPa
Clouds: Partly cloudy
Visibility: 10 miles , 16 km
Cloud details: Partly cloudy 10000 ft
2017/11/22 19:47 KRHV 221947Z VRB05KT 10SM SCT100 21/13 A3010
 
KOAK - Oakland, California, USA
Distance from station: NNW 31mi, 50km
Updated: Wed, 22-Nov-2017 11:53am PST
Mostly cloudy
Mostly cloudy
 Wind from W
Wind: W 6 mph , 9 km/h
Temperature: 63°F , 17°C
Dew Point: 57°F , 14°C
Humidity: 83%
Barometer: 30.12 inHg , 1020 hPa
Clouds: Mostly cloudy
Visibility: 8 miles , 13 km
Cloud details: Few Clouds 8000 ft
Mostly cloudy 20000 ft
2017/11/22 19:53 KOAK 221953Z 26005KT 8SM FEW080 BKN200 17/14 A3012 RMK AO2 SLP199 T01720139
KSQL - San Carlos Airpo, California, USA
Distance from station: NW 21mi, 34km
Updated: Wed, 22-Nov-2017 11:55am PST
Mostly cloudy
Mostly cloudy
 Wind from calm
Wind: Calm
Temperature: 66°F , 19°C
Dew Point: 57°F , 14°C
Humidity: 73%
Barometer: 30.12 inHg , 1020 hPa
Clouds: Mostly cloudy
Visibility: 9 miles , 14 km
Cloud details: Mostly cloudy 20000 ft
2017/11/22 19:55 KSQL 221955Z 00000KT 9SM BKN200 19/14 A3012
 
KSFO - San Francisco, California, USA
Distance from station: NW 30mi, 49km
Updated: Wed, 22-Nov-2017 11:56am PST
Mostly cloudy
Mostly cloudy
 Wind from ENE
Wind: ENE 3 mph , 6 km/h
Temperature: 64°F , 18°C
Dew Point: 57°F , 14°C
Humidity: 78%
Barometer: 30.12 inHg , 1020 hPa
Clouds: Mostly cloudy
Visibility: 8 miles , 13 km
Cloud details: Mostly cloudy 20000 ft
2017/11/22 19:56 KSFO 221956Z 07003KT 8SM BKN200 18/14 A3012 RMK AO2 SLP198 T01830139
KE16 - San Martin, California, USA
Distance from station: ESE 27mi, 43km
Updated: Wed, 22-Nov-2017 11:55am PST
Clear
Clear
 Wind from calm
Wind: Calm
Temperature: 72°F , 22°C
Dew Point: 55°F , 13°C
Humidity: 57%
Barometer: 30.12 inHg , 1020 hPa
Clouds: Clear
Visibility: 10 miles , 16 km
2017/11/22 19:55 KE16 221955Z AUTO 00000KT 10SM CLR 22/13 A3012 RMK AO2 PWINO PNO
 
KWVI - Watsonville, California, USA
Distance from station: SSE 27mi, 44km
Updated: Wed, 22-Nov-2017 11:53am PST
Clear
Clear
 Wind from calm
Wind: Calm
Temperature: 77°F , 25°C
Dew Point: 55°F , 13°C
Humidity: 47%
Barometer: 30.09 inHg , 1019 hPa
Clouds: Clear
Visibility: 10 miles , 16 km
2017/11/22 19:53 KWVI 221953Z AUTO 00000KT 10SM CLR 25/13 A3009 RMK AO2 SLP187 T02500128 $
KHAF - Half Moon Bay, California, USA
Distance from station: WNW 31mi, 50km
Updated: Wed, 22-Nov-2017 11:50am PST
Clear
Clear
 Wind from W
Wind: W 6 mph , 9 km/h
Temperature: 68°F , 20°C
Dew Point: 54°F , 12°C
Humidity: 60%
Barometer: 30.09 inHg , 1019 hPa
Clouds: Clear
Visibility: 7 miles , 11 km
2017/11/22 19:50 KHAF 221950Z AUTO 28005KT 7SM CLR 20/12 A3009 RMK AO2
 
KHWD - Hayward, California, USA
Distance from station: N 28mi, 44km
Updated: Wed, 22-Nov-2017 11:54am PST
Haze, Clear
Haze, Clear
 Wind from varies
Wind: varies 3 mph , 6 km/h
Temperature: 68°F , 20°C
Dew Point: 52°F , 11°C
Humidity: 56%
Barometer: 30.10 inHg , 1019.3 hPa
Summary: Haze
Clouds: Clear
Visibility: 6 miles , 10 km
2017/11/22 19:54 KHWD 221954Z VRB03KT 6SM HZ CLR 20/11 A3010 RMK AO2 SLP202 T02000111
KLVK - Livermore, California, USA
Distance from station: NNE 31mi, 51km
Updated: Wed, 22-Nov-2017 11:53am PST
Clear
Clear
 Wind from ENE
Wind: ENE 9 mph , 15 km/h
Temperature: 70°F , 21°C
Dew Point: 55°F , 13°C
Humidity: 60%
Barometer: 30.12 inHg , 1020 hPa
Clouds: Clear
Visibility: 10 miles , 16 km
2017/11/22 19:53 KLVK 221953Z 07008KT 10SM CLR 21/13 A3012 RMK AO2 SLP199 T02060133